sensor_id;sensor_type;location;lat;lon;timestamp;pressure;altitude;pressure_sealevel;temperature
41940;BMP180;23057;48.554;14.454;2023-05-10T00:01:06;93229.00;;;17.40
41940;BMP180;23057;48.554;14.454;2023-05-10T00:03:37;93227.00;;;17.40
41940;BMP180;23057;48.554;14.454;2023-05-10T00:06:08;93225.00;;;17.40
41940;BMP180;23057;48.554;14.454;2023-05-10T00:08:39;93219.00;;;17.40
41940;BMP180;23057;48.554;14.454;2023-05-10T00:11:10;93224.00;;;17.40
41940;BMP180;23057;48.554;14.454;2023-05-10T00:13:40;93214.00;;;17.40
41940;BMP180;23057;48.554;14.454;2023-05-10T00:16:11;93214.00;;;17.40
41940;BMP180;23057;48.554;14.454;2023-05-10T00:18:43;93217.00;;;17.30
41940;BMP180;23057;48.554;14.454;2023-05-10T00:21:14;93209.00;;;17.30
41940;BMP180;23057;48.554;14.454;2023-05-10T00:23:45;93206.00;;;17.30
41940;BMP180;23057;48.554;14.454;2023-05-10T00:26:15;93205.00;;;17.30
41940;BMP180;23057;48.554;14.454;2023-05-10T00:28:47;93204.00;;;17.30
41940;BMP180;23057;48.554;14.454;2023-05-10T00:31:18;93202.00;;;17.30
41940;BMP180;23057;48.554;14.454;2023-05-10T00:33:48;93195.00;;;17.30
41940;BMP180;23057;48.554;14.454;2023-05-10T00:36:19;93198.00;;;17.20
41940;BMP180;23057;48.554;14.454;2023-05-10T00:38:51;93194.00;;;17.20
41940;BMP180;23057;48.554;14.454;2023-05-10T00:41:21;93193.00;;;17.20
41940;BMP180;23057;48.554;14.454;2023-05-10T00:43:52;93200.00;;;17.10
41940;BMP180;23057;48.554;14.454;2023-05-10T00:46:23;93196.00;;;17.00
41940;BMP180;23057;48.554;14.454;2023-05-10T00:48:55;93195.00;;;16.90
41940;BMP180;23057;48.554;14.454;2023-05-10T00:51:26;93199.00;;;16.80
41940;BMP180;23057;48.554;14.454;2023-05-10T00:53:57;93191.00;;;16.60
41940;BMP180;23057;48.554;14.454;2023-05-10T00:56:29;93180.00;;;16.50
41940;BMP180;23057;48.554;14.454;2023-05-10T00:59:00;93189.00;;;16.40
41940;BMP180;23057;48.554;14.454;2023-05-10T01:01:31;93195.00;;;16.30
41940;BMP180;23057;48.554;14.454;2023-05-10T01:04:03;93192.00;;;16.20
41940;BMP180;23057;48.554;14.454;2023-05-10T01:06:34;93205.00;;;16.10
41940;BMP180;23057;48.554;14.454;2023-05-10T01:09:05;93204.00;;;15.90
41940;BMP180;23057;48.554;14.454;2023-05-10T01:11:37;93203.00;;;15.70
41940;BMP180;23057;48.554;14.454;2023-05-10T01:14:10;93209.00;;;15.60
41940;BMP180;23057;48.554;14.454;2023-05-10T01:16:42;93204.00;;;15.40
41940;BMP180;23057;48.554;14.454;2023-05-10T01:19:26;93210.00;;;15.20
41940;BMP180;23057;48.554;14.454;2023-05-10T01:22:18;93210.00;;;15.10
41940;BMP180;23057;48.554;14.454;2023-05-10T01:28:25;93210.00;;;14.80
41940;BMP180;23057;48.554;14.454;2023-05-10T01:31:30;93219.00;;;14.70
41940;BMP180;23057;48.554;14.454;2023-05-10T01:34:20;93218.00;;;14.70
41940;BMP180;23057;48.554;14.454;2023-05-10T01:37:16;93221.00;;;14.70
41940;BMP180;23057;48.554;14.454;2023-05-10T01:40:32;93225.00;;;14.60
41940;BMP180;23057;48.554;14.454;2023-05-10T01:43:32;93231.00;;;14.30
41940;BMP180;23057;48.554;14.454;2023-05-10T01:46:21;93231.00;;;14.30
41940;BMP180;23057;48.554;14.454;2023-05-10T01:49:00;93231.00;;;14.20
41940;BMP180;23057;48.554;14.454;2023-05-10T01:51:41;93217.00;;;14.20
41940;BMP180;23057;48.554;14.454;2023-05-10T01:54:20;93204.00;;;14.20
41940;BMP180;23057;48.554;14.454;2023-05-10T01:56:56;93213.00;;;14.10
41940;BMP180;23057;48.554;14.454;2023-05-10T01:59:37;93208.00;;;14.10
41940;BMP180;23057;48.554;14.454;2023-05-10T02:02:14;93218.00;;;14.10
41940;BMP180;23057;48.554;14.454;2023-05-10T02:04:49;93212.00;;;14.10
41940;BMP180;23057;48.554;14.454;2023-05-10T02:07:22;93206.00;;;14.20
41940;BMP180;23057;48.554;14.454;2023-05-10T02:09:54;93207.00;;;14.20
41940;BMP180;23057;48.554;14.454;2023-05-10T02:12:26;93204.00;;;14.20
41940;BMP180;23057;48.554;14.454;2023-05-10T02:15:02;93213.00;;;14.20
41940;BMP180;23057;48.554;14.454;2023-05-10T02:17:37;93211.00;;;14.20
41940;BMP180;23057;48.554;14.454;2023-05-10T02:20:10;93214.00;;;14.20
41940;BMP180;23057;48.554;14.454;2023-05-10T02:22:44;93210.00;;;14.20
41940;BMP180;23057;48.554;14.454;2023-05-10T02:25:19;93201.00;;;14.10
41940;BMP180;23057;48.554;14.454;2023-05-10T02:27:54;93212.00;;;14.00
41940;BMP180;23057;48.554;14.454;2023-05-10T02:30:27;93199.00;;;13.90
41940;BMP180;23057;48.554;14.454;2023-05-10T02:33:04;93196.00;;;13.90
41940;BMP180;23057;48.554;14.454;2023-05-10T02:35:36;93192.00;;;13.90
41940;BMP180;23057;48.554;14.454;2023-05-10T02:38:09;93194.00;;;13.90
41940;BMP180;23057;48.554;14.454;2023-05-10T02:40:42;93195.00;;;13.90
41940;BMP180;23057;48.554;14.454;2023-05-10T02:43:15;93193.00;;;13.90
41940;BMP180;23057;48.554;14.454;2023-05-10T02:45:48;93189.00;;;13.90
41940;BMP180;23057;48.554;14.454;2023-05-10T02:48:19;93187.00;;;13.90
41940;BMP180;23057;48.554;14.454;2023-05-10T02:50:51;93185.00;;;13.90
41940;BMP180;23057;48.554;14.454;2023-05-10T02:53:31;93185.00;;;13.90
41940;BMP180;23057;48.554;14.454;2023-05-10T02:56:16;93178.00;;;13.90
41940;BMP180;23057;48.554;14.454;2023-05-10T02:58:55;93181.00;;;13.90
41940;BMP180;23057;48.554;14.454;2023-05-10T03:01:26;93184.00;;;13.90
41940;BMP180;23057;48.554;14.454;2023-05-10T03:03:56;93189.00;;;13.90
41940;BMP180;23057;48.554;14.454;2023-05-10T03:06:27;93185.00;;;13.90
41940;BMP180;23057;48.554;14.454;2023-05-10T03:08:59;93190.00;;;13.80
41940;BMP180;23057;48.554;14.454;2023-05-10T03:11:56;93183.00;;;13.80
41940;BMP180;23057;48.554;14.454;2023-05-10T03:18:09;93181.00;;;13.70
41940;BMP180;23057;48.554;14.454;2023-05-10T03:20:48;93184.00;;;13.70
41940;BMP180;23057;48.554;14.454;2023-05-10T03:23:35;93181.00;;;13.60
41940;BMP180;23057;48.554;14.454;2023-05-10T03:26:09;93184.00;;;13.60
41940;BMP180;23057;48.554;14.454;2023-05-10T03:28:42;93186.00;;;13.50
41940;BMP180;23057;48.554;14.454;2023-05-10T03:31:14;93199.00;;;13.60
41940;BMP180;23057;48.554;14.454;2023-05-10T03:33:49;93180.00;;;13.60
41940;BMP180;23057;48.554;14.454;2023-05-10T03:36:21;93182.00;;;13.50
41940;BMP180;23057;48.554;14.454;2023-05-10T03:38:51;93185.00;;;13.50
41940;BMP180;23057;48.554;14.454;2023-05-10T03:41:22;93183.00;;;13.50
41940;BMP180;23057;48.554;14.454;2023-05-10T03:43:53;93176.00;;;13.50
41940;BMP180;23057;48.554;14.454;2023-05-10T03:46:23;93183.00;;;13.60
41940;BMP180;23057;48.554;14.454;2023-05-10T03:48:54;93179.00;;;13.60
41940;BMP180;23057;48.554;14.454;2023-05-10T03:51:25;93182.00;;;13.80
41940;BMP180;23057;48.554;14.454;2023-05-10T03:53:58;93194.00;;;14.10
41940;BMP180;23057;48.554;14.454;2023-05-10T03:56:29;93191.00;;;14.30
41940;BMP180;23057;48.554;14.454;2023-05-10T03:59:00;93197.00;;;14.50
41940;BMP180;23057;48.554;14.454;2023-05-10T04:01:31;93194.00;;;14.60
41940;BMP180;23057;48.554;14.454;2023-05-10T04:04:01;93191.00;;;14.90
41940;BMP180;23057;48.554;14.454;2023-05-10T04:06:32;93202.00;;;15.20
41940;BMP180;23057;48.554;14.454;2023-05-10T04:09:03;93196.00;;;15.50
41940;BMP180;23057;48.554;14.454;2023-05-10T04:11:34;93199.00;;;15.70
41940;BMP180;23057;48.554;14.454;2023-05-10T04:14:05;93196.00;;;16.00
41940;BMP180;23057;48.554;14.454;2023-05-10T04:16:36;93206.00;;;16.30
41940;BMP180;23057;48.554;14.454;2023-05-10T04:19:06;93200.00;;;16.60
41940;BMP180;23057;48.554;14.454;2023-05-10T04:21:37;93201.00;;;16.90
41940;BMP180;23057;48.554;14.454;2023-05-10T04:24:08;93204.00;;;17.20
41940;BMP180;23057;48.554;14.454;2023-05-10T04:26:39;93194.00;;;17.40
41940;BMP180;23057;48.554;14.454;2023-05-10T04:29:09;93206.00;;;17.70
41940;BMP180;23057;48.554;14.454;2023-05-10T04:31:40;93209.00;;;18.10
41940;BMP180;23057;48.554;14.454;2023-05-10T04:34:11;93207.00;;;18.40
41940;BMP180;23057;48.554;14.454;2023-05-10T04:36:42;93209.00;;;18.80
41940;BMP180;23057;48.554;14.454;2023-05-10T04:39:12;93216.00;;;19.10
41940;BMP180;23057;48.554;14.454;2023-05-10T04:41:44;93210.00;;;19.40
41940;BMP180;23057;48.554;14.454;2023-05-10T04:44:14;93214.00;;;19.50
41940;BMP180;23057;48.554;14.454;2023-05-10T04:46:45;93206.00;;;19.70
41940;BMP180;23057;48.554;14.454;2023-05-10T04:49:16;93210.00;;;19.80
41940;BMP180;23057;48.554;14.454;2023-05-10T04:51:48;93213.00;;;19.60
41940;BMP180;23057;48.554;14.454;2023-05-10T04:54:18;93216.00;;;19.60
41940;BMP180;23057;48.554;14.454;2023-05-10T04:56:49;93212.00;;;19.50
41940;BMP180;23057;48.554;14.454;2023-05-10T04:59:20;93217.00;;;19.50
41940;BMP180;23057;48.554;14.454;2023-05-10T05:01:51;93214.00;;;19.50
41940;BMP180;23057;48.554;14.454;2023-05-10T05:04:21;93215.00;;;19.50
41940;BMP180;23057;48.554;14.454;2023-05-10T05:06:53;93208.00;;;19.50
41940;BMP180;23057;48.554;14.454;2023-05-10T05:09:24;93216.00;;;19.40
41940;BMP180;23057;48.554;14.454;2023-05-10T05:11:55;93219.00;;;19.50
41940;BMP180;23057;48.554;14.454;2023-05-10T05:14:26;93233.00;;;19.70
41940;BMP180;23057;48.554;14.454;2023-05-10T05:16:56;93232.00;;;20.00
41940;BMP180;23057;48.554;14.454;2023-05-10T05:19:27;93229.00;;;20.40
41940;BMP180;23057;48.554;14.454;2023-05-10T05:21:58;93233.00;;;20.60
41940;BMP180;23057;48.554;14.454;2023-05-10T05:24:29;93226.00;;;20.80
41940;BMP180;23057;48.554;14.454;2023-05-10T05:26:59;93228.00;;;21.00
41940;BMP180;23057;48.554;14.454;2023-05-10T05:29:31;93234.00;;;21.10
41940;BMP180;23057;48.554;14.454;2023-05-10T05:32:02;93232.00;;;21.10
41940;BMP180;23057;48.554;14.454;2023-05-10T05:34:33;93234.00;;;21.10
41940;BMP180;23057;48.554;14.454;2023-05-10T05:37:04;93239.00;;;21.10
41940;BMP180;23057;48.554;14.454;2023-05-10T05:39:35;93238.00;;;21.20
41940;BMP180;23057;48.554;14.454;2023-05-10T05:42:06;93230.00;;;21.20
41940;BMP180;23057;48.554;14.454;2023-05-10T05:44:37;93236.00;;;21.30
41940;BMP180;23057;48.554;14.454;2023-05-10T05:47:09;93239.00;;;21.50
41940;BMP180;23057;48.554;14.454;2023-05-10T05:49:39;93250.00;;;21.60
41940;BMP180;23057;48.554;14.454;2023-05-10T05:52:10;93251.00;;;21.70
41940;BMP180;23057;48.554;14.454;2023-05-10T05:54:41;93250.00;;;21.80
41940;BMP180;23057;48.554;14.454;2023-05-10T05:57:12;93246.00;;;21.80
41940;BMP180;23057;48.554;14.454;2023-05-10T05:59:43;93239.00;;;21.80
41940;BMP180;23057;48.554;14.454;2023-05-10T06:02:14;93249.00;;;21.80
41940;BMP180;23057;48.554;14.454;2023-05-10T06:04:45;93253.00;;;21.80
41940;BMP180;23057;48.554;14.454;2023-05-10T06:07:16;93253.00;;;21.70
41940;BMP180;23057;48.554;14.454;2023-05-10T06:09:47;93258.00;;;21.60
41940;BMP180;23057;48.554;14.454;2023-05-10T06:12:18;93254.00;;;21.60
41940;BMP180;23057;48.554;14.454;2023-05-10T06:14:49;93267.00;;;21.50
41940;BMP180;23057;48.554;14.454;2023-05-10T06:17:20;93265.00;;;21.40
41940;BMP180;23057;48.554;14.454;2023-05-10T06:19:52;93269.00;;;21.20
41940;BMP180;23057;48.554;14.454;2023-05-10T06:22:22;93273.00;;;21.20
41940;BMP180;23057;48.554;14.454;2023-05-10T06:24:53;93275.00;;;21.00
41940;BMP180;23057;48.554;14.454;2023-05-10T06:27:24;93270.00;;;21.00
41940;BMP180;23057;48.554;14.454;2023-05-10T06:29:54;93276.00;;;20.90
41940;BMP180;23057;48.554;14.454;2023-05-10T06:32:25;93282.00;;;20.90
41940;BMP180;23057;48.554;14.454;2023-05-10T06:34:57;93286.00;;;20.80
41940;BMP180;23057;48.554;14.454;2023-05-10T06:37:28;93278.00;;;20.80
41940;BMP180;23057;48.554;14.454;2023-05-10T06:39:58;93277.00;;;20.80
41940;BMP180;23057;48.554;14.454;2023-05-10T06:42:29;93282.00;;;20.80
41940;BMP180;23057;48.554;14.454;2023-05-10T06:45:00;93285.00;;;20.80
41940;BMP180;23057;48.554;14.454;2023-05-10T06:47:31;93289.00;;;20.70
41940;BMP180;23057;48.554;14.454;2023-05-10T06:50:03;93272.00;;;20.70
41940;BMP180;23057;48.554;14.454;2023-05-10T06:52:36;93288.00;;;20.60
41940;BMP180;23057;48.554;14.454;2023-05-10T06:55:08;93291.00;;;20.50
41940;BMP180;23057;48.554;14.454;2023-05-10T06:57:39;93287.00;;;20.40
41940;BMP180;23057;48.554;14.454;2023-05-10T07:00:10;93297.00;;;20.40
41940;BMP180;23057;48.554;14.454;2023-05-10T07:02:41;93295.00;;;20.30
41940;BMP180;23057;48.554;14.454;2023-05-10T07:05:12;93296.00;;;20.20
41940;BMP180;23057;48.554;14.454;2023-05-10T07:07:44;93307.00;;;20.20
41940;BMP180;23057;48.554;14.454;2023-05-10T07:10:15;93300.00;;;20.20
41940;BMP180;23057;48.554;14.454;2023-05-10T07:12:45;93298.00;;;20.20
41940;BMP180;23057;48.554;14.454;2023-05-10T07:15:16;93309.00;;;20.20
41940;BMP180;23057;48.554;14.454;2023-05-10T07:17:47;93310.00;;;20.10
41940;BMP180;23057;48.554;14.454;2023-05-10T07:20:18;93315.00;;;20.10
41940;BMP180;23057;48.554;14.454;2023-05-10T07:22:49;93316.00;;;20.10
41940;BMP180;23057;48.554;14.454;2023-05-10T07:25:20;93315.00;;;20.10
41940;BMP180;23057;48.554;14.454;2023-05-10T07:27:50;93322.00;;;20.00
41940;BMP180;23057;48.554;14.454;2023-05-10T07:30:21;93319.00;;;20.00
41940;BMP180;23057;48.554;14.454;2023-05-10T07:32:52;93316.00;;;19.90
41940;BMP180;23057;48.554;14.454;2023-05-10T07:35:22;93332.00;;;19.90
41940;BMP180;23057;48.554;14.454;2023-05-10T07:37:53;93325.00;;;19.80
41940;BMP180;23057;48.554;14.454;2023-05-10T07:40:24;93327.00;;;19.80
41940;BMP180;23057;48.554;14.454;2023-05-10T07:42:55;93329.00;;;19.70
41940;BMP180;23057;48.554;14.454;2023-05-10T07:45:26;93337.00;;;19.60
41940;BMP180;23057;48.554;14.454;2023-05-10T07:47:56;93336.00;;;19.50
41940;BMP180;23057;48.554;14.454;2023-05-10T07:50:27;93338.00;;;19.50
41940;BMP180;23057;48.554;14.454;2023-05-10T07:52:58;93333.00;;;19.40
41940;BMP180;23057;48.554;14.454;2023-05-10T07:55:29;93333.00;;;19.30
41940;BMP180;23057;48.554;14.454;2023-05-10T07:58:00;93338.00;;;19.30
41940;BMP180;23057;48.554;14.454;2023-05-10T08:00:34;93339.00;;;19.20
41940;BMP180;23057;48.554;14.454;2023-05-10T08:03:05;93343.00;;;19.20
41940;BMP180;23057;48.554;14.454;2023-05-10T08:05:35;93343.00;;;19.10
41940;BMP180;23057;48.554;14.454;2023-05-10T08:08:06;93344.00;;;19.10
41940;BMP180;23057;48.554;14.454;2023-05-10T08:10:37;93341.00;;;19.10
41940;BMP180;23057;48.554;14.454;2023-05-10T08:13:08;93349.00;;;19.10
41940;BMP180;23057;48.554;14.454;2023-05-10T08:15:39;93339.00;;;19.10
41940;BMP180;23057;48.554;14.454;2023-05-10T08:18:09;93341.00;;;19.00
41940;BMP180;23057;48.554;14.454;2023-05-10T08:20:40;93342.00;;;19.00
41940;BMP180;23057;48.554;14.454;2023-05-10T08:23:14;93348.00;;;19.10
41940;BMP180;23057;48.554;14.454;2023-05-10T08:25:45;93334.00;;;19.10
41940;BMP180;23057;48.554;14.454;2023-05-10T08:28:16;93349.00;;;19.10
41940;BMP180;23057;48.554;14.454;2023-05-10T08:30:47;93346.00;;;19.10
41940;BMP180;23057;48.554;14.454;2023-05-10T08:33:18;93345.00;;;19.20
41940;BMP180;23057;48.554;14.454;2023-05-10T08:35:49;93348.00;;;19.20
41940;BMP180;23057;48.554;14.454;2023-05-10T08:38:19;93351.00;;;19.20
41940;BMP180;23057;48.554;14.454;2023-05-10T08:40:54;93360.00;;;19.20
41940;BMP180;23057;48.554;14.454;2023-05-10T08:43:29;93355.00;;;19.30
41940;BMP180;23057;48.554;14.454;2023-05-10T08:46:01;93347.00;;;19.30
41940;BMP180;23057;48.554;14.454;2023-05-10T08:48:34;93361.00;;;19.30
41940;BMP180;23057;48.554;14.454;2023-05-10T08:51:05;93359.00;;;19.40
41940;BMP180;23057;48.554;14.454;2023-05-10T08:53:38;93358.00;;;19.40
41940;BMP180;23057;48.554;14.454;2023-05-10T08:56:09;93361.00;;;19.40
41940;BMP180;23057;48.554;14.454;2023-05-10T08:58:40;93360.00;;;19.40
41940;BMP180;23057;48.554;14.454;2023-05-10T09:01:12;93361.00;;;19.30
41940;BMP180;23057;48.554;14.454;2023-05-10T09:03:46;93363.00;;;19.30
41940;BMP180;23057;48.554;14.454;2023-05-10T09:06:18;93368.00;;;19.30
41940;BMP180;23057;48.554;14.454;2023-05-10T09:08:50;93366.00;;;19.30
41940;BMP180;23057;48.554;14.454;2023-05-10T09:11:22;93374.00;;;19.30
41940;BMP180;23057;48.554;14.454;2023-05-10T09:13:54;93372.00;;;19.20
41940;BMP180;23057;48.554;14.454;2023-05-10T09:16:26;93366.00;;;19.10
41940;BMP180;23057;48.554;14.454;2023-05-10T09:18:56;93358.00;;;19.10
41940;BMP180;23057;48.554;14.454;2023-05-10T09:21:27;93367.00;;;19.20
41940;BMP180;23057;48.554;14.454;2023-05-10T09:24:02;93367.00;;;19.20
41940;BMP180;23057;48.554;14.454;2023-05-10T09:26:34;93367.00;;;19.30
41940;BMP180;23057;48.554;14.454;2023-05-10T09:29:15;93364.00;;;19.40
41940;BMP180;23057;48.554;14.454;2023-05-10T09:31:50;93361.00;;;19.50
41940;BMP180;23057;48.554;14.454;2023-05-10T09:34:30;93367.00;;;19.50
41940;BMP180;23057;48.554;14.454;2023-05-10T09:37:02;93360.00;;;19.50
41940;BMP180;23057;48.554;14.454;2023-05-10T09:39:37;93360.00;;;19.40
41940;BMP180;23057;48.554;14.454;2023-05-10T09:42:09;93367.00;;;19.30
41940;BMP180;23057;48.554;14.454;2023-05-10T09:44:40;93366.00;;;19.30
41940;BMP180;23057;48.554;14.454;2023-05-10T09:47:17;93369.00;;;19.30
41940;BMP180;23057;48.554;14.454;2023-05-10T09:49:50;93373.00;;;19.30
41940;BMP180;23057;48.554;14.454;2023-05-10T09:52:21;93376.00;;;19.40
41940;BMP180;23057;48.554;14.454;2023-05-10T09:54:53;93360.00;;;19.40
41940;BMP180;23057;48.554;14.454;2023-05-10T09:57:25;93372.00;;;19.40
41940;BMP180;23057;48.554;14.454;2023-05-10T09:59:56;93362.00;;;19.40
41940;BMP180;23057;48.554;14.454;2023-05-10T10:02:28;93371.00;;;19.40
41940;BMP180;23057;48.554;14.454;2023-05-10T10:05:01;93368.00;;;19.40
41940;BMP180;23057;48.554;14.454;2023-05-10T10:07:33;93367.00;;;19.40
41940;BMP180;23057;48.554;14.454;2023-05-10T10:10:06;93367.00;;;19.40
41940;BMP180;23057;48.554;14.454;2023-05-10T10:12:41;93377.00;;;19.30
41940;BMP180;23057;48.554;14.454;2023-05-10T10:15:13;93371.00;;;19.40
41940;BMP180;23057;48.554;14.454;2023-05-10T10:17:44;93378.00;;;19.30
41940;BMP180;23057;48.554;14.454;2023-05-10T10:20:17;93374.00;;;19.30
41940;BMP180;23057;48.554;14.454;2023-05-10T10:22:48;93367.00;;;19.30
41940;BMP180;23057;48.554;14.454;2023-05-10T10:25:20;93374.00;;;19.30
41940;BMP180;23057;48.554;14.454;2023-05-10T10:36:12;93371.00;;;19.40
41940;BMP180;23057;48.554;14.454;2023-05-10T10:41:33;93371.00;;;19.50
41940;BMP180;23057;48.554;14.454;2023-05-10T10:52:39;93369.00;;;19.50
41940;BMP180;23057;48.554;14.454;2023-05-10T10:55:11;93375.00;;;19.50
41940;BMP180;23057;48.554;14.454;2023-05-10T10:57:53;93378.00;;;19.60
41940;BMP180;23057;48.554;14.454;2023-05-10T11:00:31;93377.00;;;19.70
41940;BMP180;23057;48.554;14.454;2023-05-10T11:03:08;93373.00;;;19.70
41940;BMP180;23057;48.554;14.454;2023-05-10T11:05:46;93382.00;;;19.60
41940;BMP180;23057;48.554;14.454;2023-05-10T11:08:29;93375.00;;;19.70
41940;BMP180;23057;48.554;14.454;2023-05-10T11:11:06;93380.00;;;19.70
41940;BMP180;23057;48.554;14.454;2023-05-10T11:16:16;93371.00;;;19.60
41940;BMP180;23057;48.554;14.454;2023-05-10T11:21:27;93367.00;;;19.70
41940;BMP180;23057;48.554;14.454;2023-05-10T11:24:00;93366.00;;;19.70
41940;BMP180;23057;48.554;14.454;2023-05-10T11:26:35;93371.00;;;19.80
41940;BMP180;23057;48.554;14.454;2023-05-10T11:29:07;93378.00;;;19.80
41940;BMP180;23057;48.554;14.454;2023-05-10T11:31:45;93371.00;;;19.70
41940;BMP180;23057;48.554;14.454;2023-05-10T11:34:28;93371.00;;;19.70
41940;BMP180;23057;48.554;14.454;2023-05-10T11:37:01;93379.00;;;19.70
41940;BMP180;23057;48.554;14.454;2023-05-10T11:39:32;93372.00;;;19.70
41940;BMP180;23057;48.554;14.454;2023-05-10T11:42:03;93372.00;;;19.80
41940;BMP180;23057;48.554;14.454;2023-05-10T11:44:34;93371.00;;;19.90
41940;BMP180;23057;48.554;14.454;2023-05-10T11:47:05;93368.00;;;20.00
41940;BMP180;23057;48.554;14.454;2023-05-10T11:49:36;93368.00;;;20.00
41940;BMP180;23057;48.554;14.454;2023-05-10T11:52:07;93375.00;;;20.00
41940;BMP180;23057;48.554;14.454;2023-05-10T11:54:52;93366.00;;;20.10
41940;BMP180;23057;48.554;14.454;2023-05-10T11:57:26;93375.00;;;20.10
41940;BMP180;23057;48.554;14.454;2023-05-10T11:59:58;93373.00;;;20.20
41940;BMP180;23057;48.554;14.454;2023-05-10T12:02:29;93376.00;;;20.10
41940;BMP180;23057;48.554;14.454;2023-05-10T12:05:00;93360.00;;;20.20
41940;BMP180;23057;48.554;14.454;2023-05-10T12:07:33;93369.00;;;20.20
41940;BMP180;23057;48.554;14.454;2023-05-10T12:10:09;93372.00;;;20.20
41940;BMP180;23057;48.554;14.454;2023-05-10T12:12:46;93377.00;;;20.20
41940;BMP180;23057;48.554;14.454;2023-05-10T12:15:22;93376.00;;;20.10
41940;BMP180;23057;48.554;14.454;2023-05-10T12:17:54;93379.00;;;20.10
41940;BMP180;23057;48.554;14.454;2023-05-10T12:20:27;93372.00;;;20.10
41940;BMP180;23057;48.554;14.454;2023-05-10T12:22:58;93389.00;;;20.20
41940;BMP180;23057;48.554;14.454;2023-05-10T12:25:34;93381.00;;;20.20
41940;BMP180;23057;48.554;14.454;2023-05-10T12:28:07;93385.00;;;20.30
41940;BMP180;23057;48.554;14.454;2023-05-10T12:30:40;93383.00;;;20.40
41940;BMP180;23057;48.554;14.454;2023-05-10T12:33:12;93384.00;;;20.40
41940;BMP180;23057;48.554;14.454;2023-05-10T12:35:47;93376.00;;;20.30
41940;BMP180;23057;48.554;14.454;2023-05-10T12:38:33;93380.00;;;20.30
41940;BMP180;23057;48.554;14.454;2023-05-10T12:41:07;93378.00;;;20.40
41940;BMP180;23057;48.554;14.454;2023-05-10T12:43:40;93375.00;;;20.40
41940;BMP180;23057;48.554;14.454;2023-05-10T12:46:13;93379.00;;;20.40
41940;BMP180;23057;48.554;14.454;2023-05-10T12:48:45;93384.00;;;20.40
41940;BMP180;23057;48.554;14.454;2023-05-10T12:51:19;93381.00;;;20.40
41940;BMP180;23057;48.554;14.454;2023-05-10T12:53:52;93384.00;;;20.40
41940;BMP180;23057;48.554;14.454;2023-05-10T12:56:23;93390.00;;;20.50
41940;BMP180;23057;48.554;14.454;2023-05-10T12:58:53;93379.00;;;20.50
41940;BMP180;23057;48.554;14.454;2023-05-10T13:01:24;93384.00;;;20.50
41940;BMP180;23057;48.554;14.454;2023-05-10T13:03:55;93387.00;;;20.50
41940;BMP180;23057;48.554;14.454;2023-05-10T13:06:26;93387.00;;;20.50
41940;BMP180;23057;48.554;14.454;2023-05-10T13:08:56;93382.00;;;20.60
41940;BMP180;23057;48.554;14.454;2023-05-10T13:11:28;93384.00;;;20.60
41940;BMP180;23057;48.554;14.454;2023-05-10T13:13:58;93385.00;;;20.60
41940;BMP180;23057;48.554;14.454;2023-05-10T13:16:29;93376.00;;;20.50
41940;BMP180;23057;48.554;14.454;2023-05-10T13:19:00;93379.00;;;20.50
41940;BMP180;23057;48.554;14.454;2023-05-10T13:21:31;93384.00;;;20.50
41940;BMP180;23057;48.554;14.454;2023-05-10T13:24:02;93384.00;;;20.50
41940;BMP180;23057;48.554;14.454;2023-05-10T13:26:33;93380.00;;;20.50
41940;BMP180;23057;48.554;14.454;2023-05-10T13:29:04;93381.00;;;20.50
41940;BMP180;23057;48.554;14.454;2023-05-10T13:31:35;93377.00;;;20.50
41940;BMP180;23057;48.554;14.454;2023-05-10T13:34:06;93376.00;;;20.60
41940;BMP180;23057;48.554;14.454;2023-05-10T13:36:37;93373.00;;;20.60
41940;BMP180;23057;48.554;14.454;2023-05-10T13:39:07;93377.00;;;20.70
41940;BMP180;23057;48.554;14.454;2023-05-10T13:41:38;93373.00;;;20.70
41940;BMP180;23057;48.554;14.454;2023-05-10T13:44:12;93375.00;;;20.80
41940;BMP180;23057;48.554;14.454;2023-05-10T13:46:44;93374.00;;;20.70
41940;BMP180;23057;48.554;14.454;2023-05-10T13:49:14;93372.00;;;20.70
41940;BMP180;23057;48.554;14.454;2023-05-10T13:51:45;93371.00;;;20.70
41940;BMP180;23057;48.554;14.454;2023-05-10T13:54:16;93376.00;;;20.70
41940;BMP180;23057;48.554;14.454;2023-05-10T13:56:49;93370.00;;;20.70
41940;BMP180;23057;48.554;14.454;2023-05-10T13:59:20;93370.00;;;20.60
41940;BMP180;23057;48.554;14.454;2023-05-10T14:01:51;93370.00;;;20.60
41940;BMP180;23057;48.554;14.454;2023-05-10T14:04:22;93365.00;;;20.50
41940;BMP180;23057;48.554;14.454;2023-05-10T14:06:53;93368.00;;;20.50
41940;BMP180;23057;48.554;14.454;2023-05-10T14:09:24;93365.00;;;20.50
41940;BMP180;23057;48.554;14.454;2023-05-10T14:11:55;93357.00;;;20.40
41940;BMP180;23057;48.554;14.454;2023-05-10T14:14:26;93359.00;;;20.40
41940;BMP180;23057;48.554;14.454;2023-05-10T14:16:56;93366.00;;;20.40
41940;BMP180;23057;48.554;14.454;2023-05-10T14:19:27;93363.00;;;20.40
41940;BMP180;23057;48.554;14.454;2023-05-10T14:22:01;93366.00;;;20.40
41940;BMP180;23057;48.554;14.454;2023-05-10T14:24:31;93362.00;;;20.50
41940;BMP180;23057;48.554;14.454;2023-05-10T14:27:02;93371.00;;;20.50
41940;BMP180;23057;48.554;14.454;2023-05-10T14:29:33;93365.00;;;20.40
41940;BMP180;23057;48.554;14.454;2023-05-10T14:32:04;93361.00;;;20.40
41940;BMP180;23057;48.554;14.454;2023-05-10T14:34:35;93361.00;;;20.50
41940;BMP180;23057;48.554;14.454;2023-05-10T14:37:05;93357.00;;;20.50
41940;BMP180;23057;48.554;14.454;2023-05-10T14:39:36;93364.00;;;20.50
41940;BMP180;23057;48.554;14.454;2023-05-10T14:42:08;93358.00;;;20.50
41940;BMP180;23057;48.554;14.454;2023-05-10T14:44:39;93363.00;;;20.40
41940;BMP180;23057;48.554;14.454;2023-05-10T14:47:10;93357.00;;;20.30
41940;BMP180;23057;48.554;14.454;2023-05-10T14:49:41;93364.00;;;20.30
41940;BMP180;23057;48.554;14.454;2023-05-10T14:52:11;93367.00;;;20.20
41940;BMP180;23057;48.554;14.454;2023-05-10T14:54:42;93361.00;;;20.20
41940;BMP180;23057;48.554;14.454;2023-05-10T14:57:13;93366.00;;;20.20
41940;BMP180;23057;48.554;14.454;2023-05-10T14:59:44;93366.00;;;20.20